Datum Uhrzeit Temperatur Luft Windgeschw. Regen Regen (1h) Temp (1h) Luftdruck Windrichtung Taupunkt Sensor
2020-07-13 16:19:00 23.2 79.0 0.0 0.0 0.0 4.4 0.0 Kombisensor
2020-07-13 16:16:00 23.6 79.0 0.0 0.0 0.0 4.7 0.0 Kombisensor
2020-07-13 16:14:00 21.7 79.0 0.0 0.0 0.0 2.8 0.0 Kombisensor
2020-07-13 16:13:00 21.7 79.0 0.0 0.0 0.0 2.8 0.0 Kombisensor
2020-07-13 16:09:00 21.0 79.0 0.0 0.0 0.0 2.0 0.0 Kombisensor
2020-07-13 16:08:00 21.8 79.0 0.0 0.0 0.0 1.5 0.0 Kombisensor
2020-07-13 16:05:00 21.8 79.0 0.0 0.0 0.0 1.5 0.0 Kombisensor
2020-07-13 16:04:00 21.8 79.0 0.0 0.0 0.0 1.5 0.0 Kombisensor
2020-07-13 15:59:00 21.8 79.0 0.0 0.0 0.0 1.7 0.0 Kombisensor
2020-07-13 15:59:00 21.8 79.0 0.0 0.0 0.0 1.7 0.0 Kombisensor
2020-07-13 15:56:00 21.0 79.0 0.0 0.0 0.0 0.5 0.0 Kombisensor
2020-07-13 15:54:00 21.0 79.0 0.0 0.0 0.0 0.8 0.0 Kombisensor
2020-07-13 15:49:00 19.8 79.0 0.0 0.0 0.0 -1.3 0.0 Kombisensor
2020-07-13 15:47:00 20.7 79.0 0.0 0.0 0.0 -0.4 0.0 Kombisensor
2020-07-13 15:44:00 23.5 79.0 0.0 0.0 0.0 2.5 0.0 Kombisensor
2020-07-13 15:39:00 20.3 79.0 0.0 0.0 0.0 1.1 0.0 Kombisensor
2020-07-13 15:34:00 19.4 79.0 0.0 0.0 0.0 -0.7 0.0 Kombisensor
2020-07-13 15:29:00 18.6 79.0 0.0 0.0 0.0 -0.2 0.0 Kombisensor
2020-07-13 15:24:00 18.6 79.0 0.0 0.0 0.0 -1.4 0.0 Kombisensor
2020-07-13 15:19:00 18.8 79.0 0.0 0.0 0.0 -0.9 0.0 Kombisensor
2020-07-13 15:14:00 18.9 79.0 0.0 0.0 0.0 -1.3 0.0 Kombisensor
2020-07-13 15:12:00 18.9 79.0 0.0 0.0 0.0 -1.3 0.0 Kombisensor
2020-07-13 15:09:00 19.0 79.0 0.0 0.0 0.0 0.0 0.0 Kombisensor
2020-07-13 15:09:00 19.0 79.0 0.0 0.0 0.0 0.0 0.0 Kombisensor
2020-07-13 15:06:00 20.3 79.0 0.0 0.0 0.0 0.6 0.0 Kombisensor
2020-07-13 15:04:00 20.3 79.0 0.0 0.0 0.0 0.2 0.0 Kombisensor
2020-07-13 15:03:00 20.1 79.0 0.0 0.0 0.0 0.0 0.0 Kombisensor
2020-07-13 15:00:00 20.1 79.0 0.0 0.0 0.0 -0.4 0.0 Kombisensor
2020-07-13 14:59:00 20.1 79.0 0.0 0.0 0.0 -0.4 0.0 Kombisensor
2020-07-13 14:57:00 20.5 79.0 0.0 0.0 0.0 0.9 0.0 Kombisensor
2020-07-13 14:54:00 20.2 79.0 0.0 0.0 0.0 0.6 0.0 Kombisensor
2020-07-13 14:54:00 20.2 79.0 0.0 0.0 0.0 0.6 0.0 Kombisensor
2020-07-13 14:51:00 22.0 79.0 0.0 0.0 0.0 2.6 0.0 Kombisensor
2020-07-13 14:49:00 21.1 79.0 0.0 0.0 0.0 1.7 0.0 Kombisensor
2020-07-13 14:48:00 21.1 79.0 0.0 0.0 0.0 1.7 0.0 Kombisensor
2020-07-13 14:45:00 21.0 79.0 0.0 0.0 0.0 0.6 0.0 Kombisensor
2020-07-13 14:44:00 21.0 79.0 0.0 0.0 0.0 0.6 0.0 Kombisensor
2020-07-13 14:40:00 19.2 79.0 0.0 0.0 0.0 -1.1 0.0 Kombisensor
2020-07-13 14:39:00 19.2 79.0 0.0 0.0 0.0 -1.1 0.0 Kombisensor
2020-07-13 14:34:00 20.1 79.0 0.0 0.0 0.0 0.1 0.0 Kombisensor
2020-07-13 14:29:00 18.8 79.0 0.0 0.0 0.0 -1.6 0.0 Kombisensor
2020-07-13 14:28:00 19.0 79.0 0.0 0.0 0.0 -1.4 0.0 Kombisensor
2020-07-13 14:25:00 20.0 79.0 0.0 0.0 0.0 -0.9 0.0 Kombisensor
2020-07-13 14:24:00 20.0 79.0 0.0 0.0 0.0 -0.5 0.0 Kombisensor
2020-07-13 14:22:00 20.2 79.0 0.0 0.0 0.0 -0.3 0.0 Kombisensor
2020-07-13 14:19:00 19.7 79.0 0.0 0.0 0.0 -0.3 0.0 Kombisensor
2020-07-13 14:19:00 19.7 79.0 0.0 0.0 0.0 -0.3 0.0 Kombisensor
2020-07-13 14:14:00 20.2 79.0 0.0 0.0 0.0 1.3 0.0 Kombisensor
2020-07-13 14:13:00 20.2 79.0 0.0 0.0 0.0 1.3 0.0 Kombisensor
2020-07-13 14:10:00 19.0 79.0 0.0 0.0 0.0 0.2 0.0 Kombisensor
2020-07-13 14:09:00 19.0 79.0 0.0 0.0 0.0 0.2 0.0 Kombisensor
2020-07-13 14:07:00 19.7 79.0 0.0 0.0 0.0 1.0 0.0 Kombisensor
2020-07-13 14:04:00 20.1 79.0 0.0 0.0 0.0 0.9 0.0 Kombisensor
2020-07-13 14:04:00 20.1 79.0 0.0 0.0 0.0 0.9 0.0 Kombisensor
2020-07-13 14:02:00 22.5 79.0 0.0 0.0 0.0 3.4 0.0 Kombisensor
2020-07-13 13:59:00 20.5 79.0 0.0 0.0 0.0 1.4 0.0 Kombisensor
2020-07-13 13:59:00 20.5 79.0 0.0 0.0 0.0 1.4 0.0 Kombisensor
2020-07-13 13:56:00 19.6 79.0 0.0 0.0 0.0 1.1 0.0 Kombisensor
2020-07-13 13:54:00 19.6 79.0 0.0 0.0 0.0 1.1 0.0 Kombisensor
2020-07-13 13:53:00 18.8 79.0 0.0 0.0 0.0 -1.0 0.0 Kombisensor
2020-07-13 13:50:00 19.4 79.0 0.0 0.0 0.0 1.3 0.0 Kombisensor
2020-07-13 13:49:00 19.4 79.0 0.0 0.0 0.0 1.3 0.0 Kombisensor
2020-07-13 13:47:00 20.1 79.0 0.0 0.0 0.0 1.6 0.0 Kombisensor
2020-07-13 13:44:00 20.4 79.0 0.0 0.0 0.0 1.9 0.0 Kombisensor
2020-07-13 13:44:00 20.4 79.0 0.0 0.0 0.0 1.9 0.0 Kombisensor
2020-07-13 13:41:00 20.7 79.0 0.0 0.0 0.0 1.1 0.0 Kombisensor
2020-07-13 13:39:00 20.3 79.0 0.0 0.0 0.0 0.8 0.0 Kombisensor
2020-07-13 13:38:00 20.3 79.0 0.0 0.0 0.0 0.8 0.0 Kombisensor
2020-07-13 13:35:00 20.0 79.0 0.0 0.0 0.0 1.0 0.0 Kombisensor
2020-07-13 13:34:00 20.0 79.0 0.0 0.0 0.0 1.6 0.0 Kombisensor
2020-07-13 13:32:00 21.0 79.0 0.0 0.0 0.0 2.6 0.0 Kombisensor
2020-07-13 13:29:00 20.4 79.0 0.0 0.0 0.0 0.3 0.0 Kombisensor
2020-07-13 13:29:00 20.4 79.0 0.0 0.0 0.0 0.3 0.0 Kombisensor
2020-07-13 13:26:00 20.9 79.0 0.0 0.0 0.0 1.3 0.0 Kombisensor
2020-07-13 13:24:00 20.5 79.0 0.0 0.0 0.0 0.9 0.0 Kombisensor
2020-07-13 13:23:00 20.5 79.0 0.0 0.0 0.0 0.9 0.0 Kombisensor
2020-07-13 13:19:00 20.0 79.0 0.0 0.0 0.0 1.8 0.0 Kombisensor
2020-07-13 13:17:00 18.7 79.0 0.0 0.0 0.0 -0.3 0.0 Kombisensor
2020-07-13 13:14:00 18.9 79.0 0.0 0.0 0.0 -0.1 0.0 Kombisensor
2020-07-13 13:09:00 18.8 79.0 0.0 0.0 0.0 -0.1 0.0 Kombisensor
2020-07-13 13:06:00 18.7 79.0 0.0 0.0 0.0 -3.4 0.0 Kombisensor
2020-07-13 13:04:00 19.2 79.0 0.0 0.0 0.0 -2.9 0.0 Kombisensor
2020-07-13 13:00:00 19.1 79.0 0.0 0.0 0.0 -2.2 0.0 Kombisensor
2020-07-13 12:59:00 19.1 79.0 0.0 0.0 0.0 -2.1 0.0 Kombisensor
2020-07-13 12:54:00 18.5 79.0 0.0 0.0 0.0 -0.9 0.0 Kombisensor
2020-07-13 12:51:00 19.8 79.0 0.0 0.0 0.0 2.7 0.0 Kombisensor
2020-07-13 12:49:00 18.1 79.0 0.0 0.0 0.0 1.0 0.0 Kombisensor
2020-07-13 12:48:00 18.1 79.0 0.0 0.0 0.0 1.0 0.0 Kombisensor
2020-07-13 12:45:00 18.5 79.0 0.0 0.0 0.0 0.2 0.0 Kombisensor
2020-07-13 12:44:00 18.5 79.0 0.0 0.0 0.0 0.2 0.0 Kombisensor
2020-07-13 12:42:00 19.6 79.0 0.0 0.0 0.0 0.7 0.0 Kombisensor
2020-07-13 12:39:00 19.5 79.0 0.0 0.0 0.0 0.8 0.0 Kombisensor
2020-07-13 12:39:00 19.5 79.0 0.0 0.0 0.0 0.8 0.0 Kombisensor
2020-07-13 12:36:00 19.0 79.0 0.0 0.0 0.0 0.4 0.0 Kombisensor
2020-07-13 12:34:00 18.4 79.0 0.0 0.0 0.0 -0.2 0.0 Kombisensor
2020-07-13 12:33:00 18.4 79.0 0.0 0.0 0.0 -0.2 0.0 Kombisensor
2020-07-13 12:31:00 20.1 79.0 0.0 0.0 0.0 1.6 0.0 Kombisensor
2020-07-13 12:29:00 20.1 79.0 0.0 0.0 0.0 1.6 0.0 Kombisensor
2020-07-13 12:28:00 22.0 79.0 0.0 0.0 0.0 3.6 0.0 Kombisensor
2020-07-13 12:25:00 19.6 79.0 0.0 0.0 0.0 1.2 0.0 Kombisensor
2020-07-13 12:24:00 19.6 79.0 0.0 0.0 0.0 1.2 0.0 Kombisensor
2020-07-13 12:22:00 18.9 79.0 0.0 0.0 0.0 0.2 0.0 Kombisensor
2020-07-13 12:19:00 18.2 79.0 0.0 0.0 0.0 -0.5 0.0 Kombisensor
2020-07-13 12:14:00 19.0 79.0 0.0 0.0 0.0 0.2 0.0 Kombisensor
2020-07-13 12:13:00 19.0 79.0 0.0 0.0 0.0 0.2 0.0 Kombisensor
2020-07-13 12:10:00 18.9 79.0 0.0 0.0 0.0 0.9 0.0 Kombisensor
2020-07-13 12:09:00 18.9 79.0 0.0 0.0 0.0 1.2 0.0 Kombisensor
2020-07-13 12:04:00 22.1 79.0 0.0 0.0 0.0 5.8 0.0 Kombisensor
2020-07-13 12:01:00 21.3 79.0 0.0 0.0 0.0 4.9 0.0 Kombisensor
2020-07-13 11:59:00 21.2 79.0 0.0 0.0 0.0 4.8 0.0 Kombisensor
2020-07-13 11:55:00 19.4 79.0 0.0 0.0 0.0 2.7 0.0 Kombisensor
2020-07-13 11:54:00 19.4 79.0 0.0 0.0 0.0 2.7 0.0 Kombisensor
2020-07-13 11:49:00 17.1 79.0 0.0 0.0 0.0 -1.3 0.0 Kombisensor
2020-07-13 11:47:00 17.4 79.0 0.0 0.0 0.0 -1.5 0.0 Kombisensor
2020-07-13 11:44:00 18.3 79.0 0.0 0.0 0.0 -0.6 0.0 Kombisensor
2020-07-13 11:44:00 18.3 79.0 0.0 0.0 0.0 -0.6 0.0 Kombisensor
2020-07-13 11:41:00 18.9 79.0 0.0 0.0 0.0 2.0 0.0 Kombisensor
2020-07-13 11:39:00 18.7 79.0 0.0 0.0 0.0 1.8 0.0 Kombisensor
2020-07-13 11:38:00 18.7 79.0 0.0 0.0 0.0 1.7 0.0 Kombisensor
2020-07-13 11:34:00 18.6 79.0 0.0 0.0 0.0 1.1 0.0 Kombisensor
2020-07-13 11:29:00 18.5 79.0 0.0 0.0 0.0 0.8 0.0 Kombisensor
2020-07-13 11:29:00 18.5 79.0 0.0 0.0 0.0 0.8 0.0 Kombisensor
2020-07-13 11:24:00 18.4 79.0 0.0 0.0 0.0 1.2 0.0 Kombisensor
2020-07-13 11:19:00 18.7 79.0 0.0 0.0 0.0 2.8 0.0 Kombisensor
2020-07-13 11:14:00 18.8 79.0 0.0 0.0 0.0 2.6 0.0 Kombisensor
2020-07-13 11:11:00 18.0 79.0 0.0 0.0 0.0 1.3 0.0 Kombisensor
2020-07-13 11:09:00 17.7 79.0 0.0 0.0 0.0 1.0 0.0 Kombisensor
2020-07-13 11:06:00 16.6 79.0 0.0 0.0 0.0 -1.1 0.0 Kombisensor
2020-07-13 11:04:00 16.3 79.0 0.0 0.0 0.0 -1.4 0.0 Kombisensor
2020-07-13 10:59:00 16.4 79.0 0.0 0.0 0.0 -1.8 0.0 Kombisensor
2020-07-13 10:57:00 16.5 79.0 0.0 0.0 0.0 -1.3 0.0 Kombisensor
2020-07-13 10:54:00 16.7 79.0 0.0 0.0 0.0 -1.1 0.0 Kombisensor
2020-07-13 10:49:00 18.4 79.0 0.0 0.0 0.0 2.3 0.0 Kombisensor
2020-07-13 10:44:00 18.9 79.0 0.0 0.0 0.0 2.2 0.0 Kombisensor
2020-07-13 10:39:00 16.9 79.0 0.0 0.0 0.0 0.3 0.0 Kombisensor
2020-07-13 10:39:00 16.9 79.0 0.0 0.0 0.0 0.3 0.0 Kombisensor
2020-07-13 10:36:00 17.0 79.0 0.0 0.0 0.0 -0.2 0.0 Kombisensor
2020-07-13 10:34:00 17.5 79.0 0.0 0.0 0.0 0.3 0.0 Kombisensor
2020-07-13 10:33:00 17.5 79.0 0.0 0.0 0.0 0.3 0.0 Kombisensor
2020-07-13 10:29:00 17.7 79.0 0.0 0.0 0.0 1.4 0.0 Kombisensor
2020-07-13 10:24:00 17.2 79.0 0.0 0.0 0.0 0.6 0.0 Kombisensor
2020-07-13 10:19:00 15.9 79.0 0.0 0.0 0.0 -0.4 0.0 Kombisensor
2020-07-13 10:14:00 16.2 79.0 0.0 0.0 0.0 0.8 0.0 Kombisensor
2020-07-13 10:13:00 16.2 79.0 0.0 0.0 0.0 0.6 0.0 Kombisensor
2020-07-13 10:10:00 16.7 79.0 0.0 0.0 0.0 1.1 0.0 Kombisensor
2020-07-13 10:09:00 16.7 79.0 0.0 0.0 0.0 1.1 0.0 Kombisensor
2020-07-13 10:07:00 17.1 79.0 0.0 0.0 0.0 1.7 0.0 Kombisensor
2020-07-13 10:04:00 17.7 79.0 0.0 0.0 0.0 2.3 0.0 Kombisensor
2020-07-13 09:59:00 18.2 79.0 0.0 0.0 0.0 2.7 0.0 Kombisensor
2020-07-13 09:58:00 18.2 79.0 0.0 0.0 0.0 2.7 0.0 Kombisensor
2020-07-13 09:55:00 17.8 79.0 0.0 0.0 0.0 2.6 0.0 Kombisensor
2020-07-13 09:54:00 17.8 79.0 0.0 0.0 0.0 2.6 0.0 Kombisensor
2020-07-13 09:52:00 17.0 79.0 0.0 0.0 0.0 1.6 0.0 Kombisensor
2020-07-13 09:49:00 16.1 79.0 0.0 0.0 0.0 0.7 0.0 Kombisensor
2020-07-13 09:49:00 16.1 79.0 0.0 0.0 0.0 0.7 0.0 Kombisensor
2020-07-13 09:44:00 16.7 79.0 0.0 0.0 0.0 0.9 0.0 Kombisensor
2020-07-13 09:43:00 16.7 79.0 0.0 0.0 0.0 0.9 0.0 Kombisensor
2020-07-13 09:39:00 16.6 79.0 0.0 0.0 0.0 0.8 0.0 Kombisensor
2020-07-13 09:35:00 17.2 79.0 0.0 0.0 0.0 2.1 0.0 Kombisensor
2020-07-13 09:34:00 17.2 79.0 0.0 0.0 0.0 2.1 0.0 Kombisensor
2020-07-13 09:32:00 16.7 79.0 0.0 0.0 0.0 1.6 0.0 Kombisensor
2020-07-13 09:29:00 16.3 79.0 0.0 0.0 0.0 1.2 0.0 Kombisensor
2020-07-13 09:26:00 16.2 79.0 0.0 0.0 0.0 1.0 0.0 Kombisensor
2020-07-13 09:24:00 16.6 79.0 0.0 0.0 0.0 1.4 0.0 Kombisensor
2020-07-13 09:19:00 16.3 79.0 0.0 0.0 0.0 1.3 0.0 Kombisensor
2020-07-13 09:14:00 15.4 79.0 0.0 0.0 0.0 0.9 0.0 Kombisensor
2020-07-13 09:14:00 15.4 79.0 0.0 0.0 0.0 0.9 0.0 Kombisensor
2020-07-13 09:09:00 15.6 79.0 0.0 0.0 0.0 1.3 0.0 Kombisensor
2020-07-13 09:04:00 15.4 79.0 0.0 0.0 0.0 1.4 0.0 Kombisensor
2020-07-13 08:59:00 15.5 79.0 0.0 0.0 0.0 1.9 0.0 Kombisensor
2020-07-13 08:54:00 15.2 79.0 0.0 0.0 0.0 1.6 0.0 Kombisensor
2020-07-13 08:49:00 15.4 79.0 0.0 0.0 0.0 2.1 0.0 Kombisensor
2020-07-13 08:44:00 15.8 79.0 0.0 0.0 0.0 2.8 0.0 Kombisensor
2020-07-13 08:39:00 15.8 79.0 0.0 0.0 0.0 2.8 0.0 Kombisensor
2020-07-13 08:34:00 15.1 79.0 0.0 0.0 0.0 2.0 0.0 Kombisensor
2020-07-13 08:29:00 15.1 79.0 0.0 0.0 0.0 2.8 0.0 Kombisensor
2020-07-13 08:24:00 15.2 79.0 0.0 0.0 0.0 3.1 0.0 Kombisensor
2020-07-13 08:19:00 15.0 79.0 0.0 0.0 0.0 3.0 0.0 Kombisensor
2020-07-13 08:14:00 14.5 79.0 0.0 0.0 0.0 2.9 0.0 Kombisensor
2020-07-13 08:09:00 14.3 79.0 0.0 0.0 0.0 3.0 0.0 Kombisensor
2020-07-13 08:04:00 14.0 79.0 0.0 0.0 0.0 2.7 0.0 Kombisensor
2020-07-13 07:59:00 13.6 79.0 0.0 0.0 0.0 2.3 0.0 Kombisensor
2020-07-13 07:54:00 13.6 79.0 0.0 0.0 0.0 2.6 0.0 Kombisensor
2020-07-13 07:49:00 13.3 79.0 0.0 0.0 0.0 2.5 0.0 Kombisensor
2020-07-13 07:44:00 13.0 79.0 0.0 0.0 0.0 2.4 0.0 Kombisensor
2020-07-13 07:39:00 13.0 79.0 0.0 0.0 0.0 2.6 0.0 Kombisensor
2020-07-13 07:34:00 13.1 79.0 0.0 0.0 0.0 2.9 0.0 Kombisensor
2020-07-13 07:29:00 12.3 79.0 0.0 0.0 0.0 2.4 0.0 Kombisensor
2020-07-13 07:24:00 12.1 79.0 0.0 0.0 0.0 2.3 0.0 Kombisensor
2020-07-13 07:19:00 12.0 79.0 0.0 0.0 0.0 2.3 0.0 Kombisensor
2020-07-13 07:14:00 11.6 79.0 0.0 0.0 0.0 2.1 0.0 Kombisensor
2020-07-13 07:09:00 11.3 79.0 0.0 0.0 0.0 1.8 0.0 Kombisensor
2020-07-13 07:04:00 11.3 79.0 0.0 0.0 0.0 2.0 0.0 Kombisensor
2020-07-13 06:59:00 11.3 79.0 0.0 0.0 0.0 2.1 0.0 Kombisensor
2020-07-13 06:54:00 11.0 79.0 0.0 0.0 0.0 1.8 0.0 Kombisensor
2020-07-13 06:49:00 10.8 79.0 0.0 0.0 0.0 1.6 0.0 Kombisensor
2020-07-13 06:44:00 10.6 79.0 0.0 0.0 0.0 1.5 0.0 Kombisensor
2020-07-13 06:39:00 10.4 79.0 0.0 0.0 0.0 1.4 0.0 Kombisensor
2020-07-13 06:34:00 10.2 79.0 0.0 0.0 0.0 1.1 0.0 Kombisensor
2020-07-13 06:29:00 9.9 79.0 0.0 0.0 0.0 0.9 0.0 Kombisensor
2020-07-13 06:24:00 9.8 79.0 0.0 0.0 0.0 0.7 0.0 Kombisensor
2020-07-13 06:19:00 9.7 79.0 0.0 0.0 0.0 0.6 0.0 Kombisensor
2020-07-13 06:14:00 9.5 79.0 0.0 0.0 0.0 0.2 0.0 Kombisensor
2020-07-13 06:09:00 9.5 79.0 0.0 0.0 0.0 0.2 0.0 Kombisensor
2020-07-13 06:04:00 9.3 79.0 0.0 0.0 0.0 -0.1 0.0 Kombisensor
2020-07-13 05:59:00 9.2 79.0 0.0 0.0 0.0 -0.2 0.0 Kombisensor
2020-07-13 05:54:00 9.2 79.0 0.0 0.0 0.0 -0.2 0.0 Kombisensor
2020-07-13 05:49:00 9.2 79.0 0.0 0.0 0.0 0.1 0.0 Kombisensor
2020-07-13 05:44:00 9.1 79.0 0.0 0.0 0.0 0.3 0.0 Kombisensor
2020-07-13 05:39:00 9.0 79.0 0.0 0.0 0.0 0.3 0.0 Kombisensor
2020-07-13 05:34:00 9.1 79.0 0.0 0.0 0.0 0.4 0.0 Kombisensor
2020-07-13 05:29:00 9.0 79.0 0.0 0.0 0.0 0.4 0.0 Kombisensor
2020-07-13 05:24:00 9.1 79.0 0.0 0.0 0.0 0.6 0.0 Kombisensor
2020-07-13 05:19:00 9.1 79.0 0.0 0.0 0.0 0.5 0.0 Kombisensor
2020-07-13 05:14:00 9.3 79.0 0.0 0.0 0.0 0.6 0.0 Kombisensor
2020-07-13 05:09:00 9.3 79.0 0.0 0.0 0.0 0.6 0.0 Kombisensor
2020-07-13 05:04:00 9.4 79.0 0.0 0.0 0.0 0.6 0.0 Kombisensor
2020-07-13 04:59:00 9.4 79.0 0.0 0.0 0.0 0.6 0.0 Kombisensor
2020-07-13 04:54:00 9.4 79.0 0.0 0.0 0.0 0.5 0.0 Kombisensor
2020-07-13 04:49:00 9.1 79.0 0.0 0.0 0.0 0.2 0.0 Kombisensor
2020-07-13 04:44:00 8.8 79.0 0.0 0.0 0.0 -0.2 0.0 Kombisensor
2020-07-13 04:39:00 8.7 79.0 0.0 0.0 0.0 -0.3 0.0 Kombisensor
2020-07-13 04:34:00 8.7 79.0 0.0 0.0 0.0 -0.3 0.0 Kombisensor
2020-07-13 04:29:00 8.6 79.0 0.0 0.0 0.0 -0.5 0.0 Kombisensor
2020-07-13 04:24:00 8.5 79.0 0.0 0.0 0.0 -0.7 0.0 Kombisensor
2020-07-13 04:19:00 8.6 79.0 0.0 0.0 0.0 -0.8 0.0 Kombisensor
2020-07-13 04:14:00 8.7 79.0 0.0 0.0 0.0 -0.6 0.0 Kombisensor
2020-07-13 04:09:00 8.7 79.0 0.0 0.0 0.0 -0.6 0.0 Kombisensor
2020-07-13 04:04:00 8.8 79.0 0.0 0.0 0.0 -0.5 0.0 Kombisensor
2020-07-13 03:59:00 8.8 79.0 0.0 0.0 0.0 -0.5 0.0 Kombisensor
2020-07-13 03:54:00 8.9 79.0 0.0 0.0 0.0 -0.4 0.0 Kombisensor
2020-07-13 03:49:00 8.9 79.0 0.0 0.0 0.0 -0.5 0.0 Kombisensor
2020-07-13 03:44:00 9.0 79.0 0.0 0.0 0.0 -0.4 0.0 Kombisensor
2020-07-13 03:39:00 9.0 79.0 0.0 0.0 0.0 -0.6 0.0 Kombisensor
2020-07-13 03:34:00 9.0 79.0 0.0 0.0 0.0 -0.6 0.0 Kombisensor
2020-07-13 03:29:00 9.1 79.0 0.0 0.0 0.0 -0.7 0.0 Kombisensor
2020-07-13 03:24:00 9.2 79.0 0.0 0.0 0.0 -0.6 0.0 Kombisensor
2020-07-13 03:19:00 9.4 79.0 0.0 0.0 0.0 -0.4 0.0 Kombisensor
2020-07-13 03:14:00 9.3 79.0 0.0 0.0 0.0 -0.7 0.0 Kombisensor
2020-07-13 03:09:00 9.3 79.0 0.0 0.0 0.0 -0.8 0.0 Kombisensor
2020-07-13 03:04:00 9.3 79.0 0.0 0.0 0.0 -0.8 0.0 Kombisensor
2020-07-13 02:59:00 9.3 79.0 0.0 0.0 0.0 -0.9 0.0 Kombisensor
2020-07-13 02:54:00 9.3 79.0 0.0 0.0 0.0 -1.0 0.0 Kombisensor
2020-07-13 02:49:00 9.4 79.0 0.0 0.0 0.0 -1.0 0.0 Kombisensor
2020-07-13 02:44:00 9.4 79.0 0.0 0.0 0.0 -1.0 0.0 Kombisensor
2020-07-13 02:39:00 9.6 79.0 0.0 0.0 0.0 -1.0 0.0 Kombisensor
2020-07-13 02:34:00 9.6 79.0 0.0 0.0 0.0 -1.0 0.0 Kombisensor
2020-07-13 02:29:00 9.8 79.0 0.0 0.0 0.0 -1.0 0.0 Kombisensor
2020-07-13 02:24:00 9.8 79.0 0.0 0.0 0.0 -0.9 0.0 Kombisensor
2020-07-13 02:19:00 9.8 79.0 0.0 0.0 0.0 -1.0 0.0 Kombisensor
2020-07-13 02:14:00 10.0 79.0 0.0 0.0 0.0 -0.8 0.0 Kombisensor
2020-07-13 02:09:00 10.1 79.0 0.0 0.0 0.0 -0.8 0.0 Kombisensor
2020-07-13 02:04:00 10.1 79.0 0.0 0.0 0.0 -1.0 0.0 Kombisensor
2020-07-13 01:59:00 10.2 79.0 0.0 0.0 0.0 -0.9 0.0 Kombisensor
2020-07-13 01:54:00 10.3 79.0 0.0 0.0 0.0 -1.0 0.0 Kombisensor
2020-07-13 01:49:00 10.4 79.0 0.0 0.0 0.0 -1.0 0.0 Kombisensor
2020-07-13 01:44:00 10.4 79.0 0.0 0.0 0.0 -1.0 0.0 Kombisensor
2020-07-13 01:39:00 10.6 79.0 0.0 0.0 0.0 -0.9 0.0 Kombisensor
2020-07-13 01:34:00 10.6 79.0 0.0 0.0 0.0 -1.0 0.0 Kombisensor
2020-07-13 01:29:00 10.8 79.0 0.0 0.0 0.0 -0.8 0.0 Kombisensor
2020-07-13 01:24:00 10.7 79.0 0.0 0.0 0.0 -0.9 0.0 Kombisensor
2020-07-13 01:19:00 10.8 79.0 0.0 0.0 0.0 -0.8 0.0 Kombisensor
2020-07-13 01:14:00 10.8 79.0 0.0 0.0 0.0 -0.7 0.0 Kombisensor
2020-07-13 01:09:00 10.9 79.0 0.0 0.0 0.0 -0.6 0.0 Kombisensor
2020-07-13 01:04:00 11.1 79.0 0.0 0.0 0.0 0.0 0.0 Kombisensor
2020-07-13 00:59:00 11.1 79.0 0.0 0.0 0.0 -9.2 0.0 Kombisensor
2020-07-13 00:54:00 11.3 79.0 0.0 0.0 0.0 -0.1 0.0 Kombisensor
2020-07-13 00:49:00 11.4 79.0 0.0 0.0 0.0 0.0 0.0 Kombisensor
2020-07-13 00:44:00 11.4 79.0 0.0 0.0 0.0 -0.1 0.0 Kombisensor
2020-07-13 00:39:00 11.5 79.0 0.0 0.0 0.0 -0.1 0.0 Kombisensor
2020-07-13 00:34:00 11.6 79.0 0.0 0.0 0.0 0.0 0.0 Kombisensor
2020-07-13 00:29:00 11.6 79.0 0.0 0.0 0.0 0.0 0.0 Kombisensor
2020-07-13 00:24:00 11.6 79.0 0.0 0.0 0.0 0.0 0.0 Kombisensor
2020-07-13 00:19:00 11.6 79.0 0.0 0.0 0.0 0.1 0.0 Kombisensor
2020-07-13 00:14:00 11.5 79.0 0.0 0.0 0.0 0.0 0.0 Kombisensor
2020-07-13 00:09:00 11.5 79.0 0.0 0.0 0.0 0.4 0.0 Kombisensor
2020-07-13 00:04:00 11.1 79.0 0.0 0.0 0.0 -0.9 0.0 Kombisensor